Aérodrome :
LOGIN :

S'inscrire | Disclaimer

   EN    FR    IT 

 










Légende :    VFR   VFR Marginal   IFR   IFR Intensif   IFR Très Intensif
Visi : 
Plafond : 
>= 8 km
>= 3000ft
5 à 8 km
1000 à 3000 ft
1500m à 5 km
500 à 1000 ft
800 à 1500m
200 à 500 ft
< 800m
< 200 ft
Symboles :   Orages  Brouillard  Fortes neiges  Fortes précipitations  Vent > 20 kt
SIGMETs :   Divers  Orages  Givrage  Turbulence  Onde Orograph.  Cendres Volcan.






- Altitude de l'aérodrome : 74 ft
- Code IATA : EIN


EHEH - Eindhoven

DERNIER METAR :
  • 011425Z AUTO VRB06KT 9999 NCD 10/M04 Q1020 BLU VRB04KT CAVOK BECMG 31005KT

METARs EXPIRÉS :
  • 011355Z AUTO VRB04KT 9999 NCD 10/M04 Q1020 BLU VRB04KT CAVOK BECMG 31005KT
  • 011325Z AUTO VRB05KT 9999 NCD 10/M04 Q1020 BLU VRB04KT CAVOK BECMG 31005KT
  • 011255Z AUTO VRB04KT 9999 NCD 10/M04 Q1021 BLU VRB04KT CAVOK BECMG 31005KT
  • 011225Z AUTO VRB05KT 9999 NCD 10/M06 Q1021 BLU VRB04KT CAVOK BECMG 31005KT
  • 011155Z AUTO VRB03KT 9999 NCD 09/M05 Q1022 BLU VRB04KT CAVOK BECMG 31005KT

TAF TAF EHEH
Valide du 01 à 12h jusqu'au 02 à 18h UTC


011129Z 0112/0218 VRB03KT CAVOK
BECMG 0112/0114 31005KT FEW040
BECMG 0121/0124 VRB02KT 4000 BR MIFG
PROB40
TEMPO 0202/0206 1500 BCFG
BECMG 0204/0206 23005KT
BECMG 0211/0213 26010KT FEW028 BKN035



MET'MAP, la Météo Aéronautique d'un coup d'oeil ! - Copyright ORBIFLY Décembre 2007 - Disclaimer

ORBIFLY MET'MAP TEAM :

Programmation & Développement : Alexandra Zaïnal
Sur une idée originale de : Baudouin d'Aumeries
Assistance à la programmation : Marc-Olivier Méhu
Soutien technique & logistique : Manuel Goepfert

Contact : metmap@orbifly.com




SOURCES & CREDITS :

   NOAA